sensor_id;sensor_type;location;lat;lon;timestamp;P1;durP1;ratioP1;P2;durP2;ratioP2
18200;SDS011;9226;47.858;9.594;2023-03-20T00:00:42;2.97;;;1.83;;
18200;SDS011;9226;47.858;9.594;2023-03-20T00:03:11;2.87;;;2.00;;
18200;SDS011;9226;47.858;9.594;2023-03-20T00:05:37;2.27;;;1.70;;
18200;SDS011;9226;47.858;9.594;2023-03-20T00:08:03;2.90;;;1.67;;
18200;SDS011;9226;47.858;9.594;2023-03-20T00:10:39;4.00;;;1.80;;
18200;SDS011;9226;47.858;9.594;2023-03-20T00:13:06;3.57;;;1.93;;
18200;SDS011;9226;47.858;9.594;2023-03-20T00:15:38;2.83;;;1.80;;
18200;SDS011;9226;47.858;9.594;2023-03-20T00:18:16;2.70;;;1.70;;
18200;SDS011;9226;47.858;9.594;2023-03-20T00:20:53;2.83;;;1.70;;
18200;SDS011;9226;47.858;9.594;2023-03-20T00:23:18;4.63;;;1.80;;
18200;SDS011;9226;47.858;9.594;2023-03-20T00:25:44;2.77;;;1.77;;
18200;SDS011;9226;47.858;9.594;2023-03-20T00:30:56;5.43;;;2.60;;
18200;SDS011;9226;47.858;9.594;2023-03-20T00:33:21;4.30;;;2.70;;
18200;SDS011;9226;47.858;9.594;2023-03-20T00:35:47;3.90;;;2.30;;
18200;SDS011;9226;47.858;9.594;2023-03-20T00:38:13;4.13;;;2.67;;
18200;SDS011;9226;47.858;9.594;2023-03-20T00:40:38;5.10;;;3.00;;
18200;SDS011;9226;47.858;9.594;2023-03-20T00:43:03;4.07;;;2.90;;
18200;SDS011;9226;47.858;9.594;2023-03-20T00:45:29;4.63;;;2.93;;
18200;SDS011;9226;47.858;9.594;2023-03-20T00:47:57;6.63;;;3.20;;
18200;SDS011;9226;47.858;9.594;2023-03-20T00:50:24;7.23;;;3.40;;
18200;SDS011;9226;47.858;9.594;2023-03-20T00:52:51;4.53;;;3.03;;
18200;SDS011;9226;47.858;9.594;2023-03-20T00:55:17;6.37;;;3.23;;
18200;SDS011;9226;47.858;9.594;2023-03-20T01:02:58;6.70;;;2.87;;
18200;SDS011;9226;47.858;9.594;2023-03-20T01:05:25;5.10;;;2.80;;
18200;SDS011;9226;47.858;9.594;2023-03-20T01:07:51;3.60;;;2.40;;
18200;SDS011;9226;47.858;9.594;2023-03-20T01:10:17;3.77;;;2.60;;
18200;SDS011;9226;47.858;9.594;2023-03-20T01:12:43;5.97;;;2.97;;
18200;SDS011;9226;47.858;9.594;2023-03-20T01:15:20;6.97;;;2.90;;
18200;SDS011;9226;47.858;9.594;2023-03-20T01:17:51;5.53;;;3.63;;
18200;SDS011;9226;47.858;9.594;2023-03-20T01:20:23;5.67;;;3.53;;
18200;SDS011;9226;47.858;9.594;2023-03-20T01:22:53;6.20;;;3.50;;
18200;SDS011;9226;47.858;9.594;2023-03-20T01:25:19;7.43;;;3.70;;
18200;SDS011;9226;47.858;9.594;2023-03-20T01:27:49;7.20;;;3.83;;
18200;SDS011;9226;47.858;9.594;2023-03-20T01:30:23;5.60;;;3.70;;
18200;SDS011;9226;47.858;9.594;2023-03-20T01:32:50;6.17;;;3.70;;
18200;SDS011;9226;47.858;9.594;2023-03-20T01:35:20;7.73;;;4.03;;
18200;SDS011;9226;47.858;9.594;2023-03-20T01:37:47;7.70;;;3.63;;
18200;SDS011;9226;47.858;9.594;2023-03-20T01:40:21;6.03;;;3.83;;
18200;SDS011;9226;47.858;9.594;2023-03-20T01:42:54;5.90;;;3.30;;
18200;SDS011;9226;47.858;9.594;2023-03-20T01:45:20;4.97;;;3.20;;
18200;SDS011;9226;47.858;9.594;2023-03-20T01:47:50;9.93;;;4.30;;
18200;SDS011;9226;47.858;9.594;2023-03-20T01:53:27;5.27;;;3.10;;
18200;SDS011;9226;47.858;9.594;2023-03-20T01:55:49;5.20;;;3.30;;
18200;SDS011;9226;47.858;9.594;2023-03-20T01:58:20;5.90;;;3.23;;
18200;SDS011;9226;47.858;9.594;2023-03-20T02:00:50;4.50;;;3.10;;
18200;SDS011;9226;47.858;9.594;2023-03-20T02:03:15;6.23;;;3.47;;
18200;SDS011;9226;47.858;9.594;2023-03-20T02:05:42;7.30;;;3.20;;
18200;SDS011;9226;47.858;9.594;2023-03-20T02:08:21;8.47;;;3.60;;
18200;SDS011;9226;47.858;9.594;2023-03-20T02:10:51;6.97;;;4.00;;
18200;SDS011;9226;47.858;9.594;2023-03-20T02:13:18;5.97;;;3.43;;
18200;SDS011;9226;47.858;9.594;2023-03-20T02:15:53;8.13;;;4.00;;
18200;SDS011;9226;47.858;9.594;2023-03-20T02:18:22;7.60;;;4.07;;
18200;SDS011;9226;47.858;9.594;2023-03-20T02:43:28;9.60;;;4.93;;
18200;SDS011;9226;47.858;9.594;2023-03-20T02:48:59;7.47;;;4.27;;
18200;SDS011;9226;47.858;9.594;2023-03-20T02:51:46;8.23;;;4.50;;
18200;SDS011;9226;47.858;9.594;2023-03-20T02:57:10;10.47;;;4.63;;
18200;SDS011;9226;47.858;9.594;2023-03-20T03:00:03;9.30;;;4.80;;
18200;SDS011;9226;47.858;9.594;2023-03-20T03:02:42;8.63;;;5.20;;
18200;SDS011;9226;47.858;9.594;2023-03-20T03:05:16;8.43;;;4.50;;
18200;SDS011;9226;47.858;9.594;2023-03-20T03:07:48;8.87;;;5.03;;
18200;SDS011;9226;47.858;9.594;2023-03-20T03:10:18;10.53;;;5.00;;
18200;SDS011;9226;47.858;9.594;2023-03-20T03:12:47;10.10;;;5.13;;
18200;SDS011;9226;47.858;9.594;2023-03-20T03:15:18;9.87;;;4.80;;
18200;SDS011;9226;47.858;9.594;2023-03-20T03:17:49;8.47;;;4.30;;
18200;SDS011;9226;47.858;9.594;2023-03-20T03:20:20;10.30;;;4.67;;
18200;SDS011;9226;47.858;9.594;2023-03-20T03:22:49;10.07;;;5.20;;
18200;SDS011;9226;47.858;9.594;2023-03-20T03:25:14;8.57;;;4.93;;
18200;SDS011;9226;47.858;9.594;2023-03-20T03:27:41;9.57;;;4.47;;
18200;SDS011;9226;47.858;9.594;2023-03-20T03:30:15;8.30;;;4.73;;
18200;SDS011;9226;47.858;9.594;2023-03-20T03:35:41;9.53;;;4.20;;
18200;SDS011;9226;47.858;9.594;2023-03-20T03:46:32;9.80;;;4.77;;
18200;SDS011;9226;47.858;9.594;2023-03-20T03:49:25;8.90;;;4.40;;
18200;SDS011;9226;47.858;9.594;2023-03-20T03:51:55;8.37;;;4.30;;
18200;SDS011;9226;47.858;9.594;2023-03-20T03:57:09;7.20;;;4.30;;
18200;SDS011;9226;47.858;9.594;2023-03-20T03:59:40;6.10;;;3.73;;
18200;SDS011;9226;47.858;9.594;2023-03-20T04:02:10;8.00;;;4.57;;
18200;SDS011;9226;47.858;9.594;2023-03-20T04:04:40;7.43;;;4.20;;
18200;SDS011;9226;47.858;9.594;2023-03-20T04:07:07;9.27;;;4.20;;
18200;SDS011;9226;47.858;9.594;2023-03-20T04:09:33;8.10;;;4.30;;
18200;SDS011;9226;47.858;9.594;2023-03-20T04:11:58;9.87;;;4.23;;
18200;SDS011;9226;47.858;9.594;2023-03-20T04:14:24;8.67;;;4.50;;
18200;SDS011;9226;47.858;9.594;2023-03-20T04:16:49;8.20;;;4.43;;
18200;SDS011;9226;47.858;9.594;2023-03-20T04:19:15;6.87;;;4.20;;
18200;SDS011;9226;47.858;9.594;2023-03-20T04:21:40;7.10;;;4.20;;
18200;SDS011;9226;47.858;9.594;2023-03-20T04:24:06;8.37;;;4.17;;
18200;SDS011;9226;47.858;9.594;2023-03-20T04:26:31;10.70;;;4.50;;
18200;SDS011;9226;47.858;9.594;2023-03-20T04:28:57;7.57;;;4.57;;
18200;SDS011;9226;47.858;9.594;2023-03-20T04:31:22;12.20;;;4.50;;
18200;SDS011;9226;47.858;9.594;2023-03-20T04:33:48;8.10;;;4.67;;
18200;SDS011;9226;47.858;9.594;2023-03-20T04:36:13;8.33;;;4.33;;
18200;SDS011;9226;47.858;9.594;2023-03-20T04:38:39;8.27;;;4.47;;
18200;SDS011;9226;47.858;9.594;2023-03-20T04:41:05;8.87;;;4.80;;
18200;SDS011;9226;47.858;9.594;2023-03-20T04:43:32;6.90;;;3.87;;
18200;SDS011;9226;47.858;9.594;2023-03-20T04:45:57;7.80;;;4.10;;
18200;SDS011;9226;47.858;9.594;2023-03-20T04:48:22;8.37;;;4.37;;
18200;SDS011;9226;47.858;9.594;2023-03-20T04:50:48;10.70;;;4.80;;
18200;SDS011;9226;47.858;9.594;2023-03-20T04:53:15;8.20;;;4.23;;
18200;SDS011;9226;47.858;9.594;2023-03-20T04:55:41;7.13;;;4.17;;
18200;SDS011;9226;47.858;9.594;2023-03-20T04:58:06;10.63;;;4.33;;
18200;SDS011;9226;47.858;9.594;2023-03-20T05:00:32;9.70;;;4.43;;
18200;SDS011;9226;47.858;9.594;2023-03-20T05:02:57;9.20;;;4.03;;
18200;SDS011;9226;47.858;9.594;2023-03-20T05:05:23;9.33;;;4.43;;
18200;SDS011;9226;47.858;9.594;2023-03-20T05:07:49;8.00;;;4.27;;
18200;SDS011;9226;47.858;9.594;2023-03-20T05:10:15;7.37;;;4.27;;
18200;SDS011;9226;47.858;9.594;2023-03-20T05:12:41;7.70;;;4.07;;
18200;SDS011;9226;47.858;9.594;2023-03-20T05:15:06;9.47;;;4.40;;
18200;SDS011;9226;47.858;9.594;2023-03-20T05:17:32;8.03;;;4.13;;
18200;SDS011;9226;47.858;9.594;2023-03-20T05:19:57;7.70;;;3.90;;
18200;SDS011;9226;47.858;9.594;2023-03-20T05:22:23;8.80;;;4.53;;
18200;SDS011;9226;47.858;9.594;2023-03-20T05:24:49;9.23;;;3.90;;
18200;SDS011;9226;47.858;9.594;2023-03-20T05:27:14;7.30;;;3.53;;
18200;SDS011;9226;47.858;9.594;2023-03-20T05:29:40;8.10;;;3.90;;
18200;SDS011;9226;47.858;9.594;2023-03-20T05:32:05;9.20;;;4.70;;
18200;SDS011;9226;47.858;9.594;2023-03-20T05:34:31;9.07;;;4.57;;
18200;SDS011;9226;47.858;9.594;2023-03-20T05:36:56;9.17;;;5.60;;
18200;SDS011;9226;47.858;9.594;2023-03-20T05:39:21;11.63;;;6.43;;
18200;SDS011;9226;47.858;9.594;2023-03-20T05:41:47;11.30;;;6.57;;
18200;SDS011;9226;47.858;9.594;2023-03-20T05:44:12;13.07;;;6.10;;
18200;SDS011;9226;47.858;9.594;2023-03-20T05:46:38;11.87;;;6.60;;
18200;SDS011;9226;47.858;9.594;2023-03-20T05:49:03;14.83;;;6.90;;
18200;SDS011;9226;47.858;9.594;2023-03-20T05:51:29;13.27;;;6.50;;
18200;SDS011;9226;47.858;9.594;2023-03-20T05:53:54;13.73;;;7.73;;
18200;SDS011;9226;47.858;9.594;2023-03-20T05:56:20;12.40;;;6.60;;
18200;SDS011;9226;47.858;9.594;2023-03-20T05:58:45;14.10;;;6.73;;
18200;SDS011;9226;47.858;9.594;2023-03-20T06:01:11;13.17;;;6.27;;
18200;SDS011;9226;47.858;9.594;2023-03-20T06:03:36;11.57;;;7.43;;
18200;SDS011;9226;47.858;9.594;2023-03-20T06:06:02;10.40;;;5.70;;
18200;SDS011;9226;47.858;9.594;2023-03-20T06:08:28;9.90;;;5.13;;
18200;SDS011;9226;47.858;9.594;2023-03-20T06:10:54;11.00;;;5.37;;
18200;SDS011;9226;47.858;9.594;2023-03-20T06:13:20;9.93;;;5.23;;
18200;SDS011;9226;47.858;9.594;2023-03-20T06:15:45;10.27;;;5.63;;
18200;SDS011;9226;47.858;9.594;2023-03-20T06:18:11;11.63;;;5.77;;
18200;SDS011;9226;47.858;9.594;2023-03-20T06:20:36;10.90;;;6.00;;
18200;SDS011;9226;47.858;9.594;2023-03-20T06:23:01;11.70;;;6.00;;
18200;SDS011;9226;47.858;9.594;2023-03-20T06:25:27;12.73;;;5.87;;
18200;SDS011;9226;47.858;9.594;2023-03-20T06:27:52;11.90;;;6.10;;
18200;SDS011;9226;47.858;9.594;2023-03-20T06:30:17;10.73;;;5.73;;
18200;SDS011;9226;47.858;9.594;2023-03-20T06:32:43;14.97;;;5.97;;
18200;SDS011;9226;47.858;9.594;2023-03-20T06:35:09;10.93;;;5.60;;
18200;SDS011;9226;47.858;9.594;2023-03-20T06:37:35;9.97;;;5.23;;
18200;SDS011;9226;47.858;9.594;2023-03-20T06:40:01;10.30;;;4.90;;
18200;SDS011;9226;47.858;9.594;2023-03-20T06:42:27;8.80;;;4.50;;
18200;SDS011;9226;47.858;9.594;2023-03-20T06:44:53;9.43;;;5.57;;
18200;SDS011;9226;47.858;9.594;2023-03-20T06:47:18;12.33;;;5.63;;
18200;SDS011;9226;47.858;9.594;2023-03-20T06:49:44;9.93;;;5.13;;
18200;SDS011;9226;47.858;9.594;2023-03-20T06:52:16;9.33;;;5.20;;
18200;SDS011;9226;47.858;9.594;2023-03-20T06:54:43;12.13;;;5.47;;
18200;SDS011;9226;47.858;9.594;2023-03-20T06:57:09;12.33;;;6.13;;
18200;SDS011;9226;47.858;9.594;2023-03-20T06:59:35;10.77;;;5.50;;
18200;SDS011;9226;47.858;9.594;2023-03-20T07:02:01;13.50;;;6.43;;
18200;SDS011;9226;47.858;9.594;2023-03-20T07:04:27;10.87;;;5.90;;
18200;SDS011;9226;47.858;9.594;2023-03-20T07:06:52;10.67;;;5.30;;
18200;SDS011;9226;47.858;9.594;2023-03-20T07:09:17;10.43;;;5.87;;
18200;SDS011;9226;47.858;9.594;2023-03-20T07:11:43;7.90;;;4.70;;
18200;SDS011;9226;47.858;9.594;2023-03-20T07:14:09;11.37;;;5.50;;
18200;SDS011;9226;47.858;9.594;2023-03-20T07:16:34;9.73;;;5.50;;
18200;SDS011;9226;47.858;9.594;2023-03-20T07:19:00;9.93;;;5.60;;
18200;SDS011;9226;47.858;9.594;2023-03-20T07:21:26;8.50;;;5.30;;
18200;SDS011;9226;47.858;9.594;2023-03-20T07:23:52;8.63;;;4.80;;
18200;SDS011;9226;47.858;9.594;2023-03-20T07:26:18;11.73;;;5.50;;
18200;SDS011;9226;47.858;9.594;2023-03-20T07:28:43;9.33;;;5.57;;
18200;SDS011;9226;47.858;9.594;2023-03-20T07:31:15;12.87;;;5.60;;
18200;SDS011;9226;47.858;9.594;2023-03-20T07:33:43;9.63;;;5.60;;
18200;SDS011;9226;47.858;9.594;2023-03-20T07:36:09;9.97;;;5.27;;
18200;SDS011;9226;47.858;9.594;2023-03-20T07:38:34;9.80;;;5.27;;
18200;SDS011;9226;47.858;9.594;2023-03-20T07:41:00;14.83;;;5.97;;
18200;SDS011;9226;47.858;9.594;2023-03-20T07:43:25;10.97;;;5.93;;
18200;SDS011;9226;47.858;9.594;2023-03-20T07:45:51;9.43;;;4.93;;
18200;SDS011;9226;47.858;9.594;2023-03-20T07:48:16;9.73;;;5.53;;
18200;SDS011;9226;47.858;9.594;2023-03-20T07:50:42;12.17;;;5.33;;
18200;SDS011;9226;47.858;9.594;2023-03-20T07:53:07;10.23;;;5.70;;
18200;SDS011;9226;47.858;9.594;2023-03-20T07:55:33;11.47;;;6.00;;
18200;SDS011;9226;47.858;9.594;2023-03-20T07:57:58;10.60;;;5.97;;
18200;SDS011;9226;47.858;9.594;2023-03-20T08:00:24;11.97;;;5.87;;
18200;SDS011;9226;47.858;9.594;2023-03-20T08:02:49;11.77;;;6.33;;
18200;SDS011;9226;47.858;9.594;2023-03-20T08:05:15;13.60;;;6.27;;
18200;SDS011;9226;47.858;9.594;2023-03-20T08:07:40;11.87;;;6.20;;
18200;SDS011;9226;47.858;9.594;2023-03-20T08:10:06;9.03;;;4.97;;
18200;SDS011;9226;47.858;9.594;2023-03-20T08:12:32;9.43;;;5.57;;
18200;SDS011;9226;47.858;9.594;2023-03-20T08:14:57;10.03;;;5.60;;
18200;SDS011;9226;47.858;9.594;2023-03-20T08:17:22;10.60;;;5.67;;
18200;SDS011;9226;47.858;9.594;2023-03-20T08:19:48;12.50;;;5.80;;
18200;SDS011;9226;47.858;9.594;2023-03-20T08:22:13;11.33;;;5.20;;
18200;SDS011;9226;47.858;9.594;2023-03-20T08:24:38;10.43;;;5.50;;
18200;SDS011;9226;47.858;9.594;2023-03-20T08:27:04;9.93;;;5.37;;
18200;SDS011;9226;47.858;9.594;2023-03-20T08:29:29;10.93;;;5.17;;
18200;SDS011;9226;47.858;9.594;2023-03-20T08:31:55;8.63;;;5.20;;
18200;SDS011;9226;47.858;9.594;2023-03-20T08:34:21;10.23;;;5.33;;
18200;SDS011;9226;47.858;9.594;2023-03-20T08:36:47;8.70;;;4.73;;
18200;SDS011;9226;47.858;9.594;2023-03-20T08:39:12;11.20;;;4.67;;
18200;SDS011;9226;47.858;9.594;2023-03-20T08:41:38;8.37;;;4.50;;
18200;SDS011;9226;47.858;9.594;2023-03-20T08:44:05;7.50;;;4.23;;
18200;SDS011;9226;47.858;9.594;2023-03-20T08:46:31;6.73;;;3.90;;
18200;SDS011;9226;47.858;9.594;2023-03-20T08:48:57;6.90;;;4.00;;
18200;SDS011;9226;47.858;9.594;2023-03-20T08:51:24;8.27;;;4.10;;
18200;SDS011;9226;47.858;9.594;2023-03-20T08:53:50;8.23;;;4.03;;
18200;SDS011;9226;47.858;9.594;2023-03-20T08:56:16;6.70;;;3.93;;
18200;SDS011;9226;47.858;9.594;2023-03-20T08:58:41;6.80;;;3.97;;
18200;SDS011;9226;47.858;9.594;2023-03-20T09:01:07;7.10;;;4.03;;
18200;SDS011;9226;47.858;9.594;2023-03-20T09:03:34;8.33;;;4.90;;
18200;SDS011;9226;47.858;9.594;2023-03-20T09:06:00;8.43;;;4.40;;
18200;SDS011;9226;47.858;9.594;2023-03-20T09:08:29;7.83;;;4.57;;
18200;SDS011;9226;47.858;9.594;2023-03-20T09:10:55;8.53;;;4.57;;
18200;SDS011;9226;47.858;9.594;2023-03-20T09:13:21;7.53;;;4.50;;
18200;SDS011;9226;47.858;9.594;2023-03-20T09:15:46;7.20;;;4.50;;
18200;SDS011;9226;47.858;9.594;2023-03-20T09:18:12;6.43;;;3.87;;
18200;SDS011;9226;47.858;9.594;2023-03-20T09:20:37;7.63;;;4.70;;
18200;SDS011;9226;47.858;9.594;2023-03-20T09:23:03;8.00;;;4.53;;
18200;SDS011;9226;47.858;9.594;2023-03-20T09:25:28;7.33;;;4.30;;
18200;SDS011;9226;47.858;9.594;2023-03-20T09:27:54;6.50;;;3.67;;
18200;SDS011;9226;47.858;9.594;2023-03-20T09:30:20;8.13;;;4.70;;
18200;SDS011;9226;47.858;9.594;2023-03-20T09:32:47;7.37;;;4.63;;
18200;SDS011;9226;47.858;9.594;2023-03-20T09:35:13;9.93;;;4.47;;
18200;SDS011;9226;47.858;9.594;2023-03-20T09:37:39;7.20;;;4.43;;
18200;SDS011;9226;47.858;9.594;2023-03-20T09:40:04;7.20;;;3.97;;
18200;SDS011;9226;47.858;9.594;2023-03-20T09:48:01;5.83;;;3.93;;
18200;SDS011;9226;47.858;9.594;2023-03-20T09:50:34;6.83;;;3.33;;
18200;SDS011;9226;47.858;9.594;2023-03-20T09:55:37;5.87;;;3.03;;
18200;SDS011;9226;47.858;9.594;2023-03-20T09:58:09;5.67;;;2.87;;
18200;SDS011;9226;47.858;9.594;2023-03-20T10:00:39;5.97;;;2.97;;
18200;SDS011;9226;47.858;9.594;2023-03-20T10:03:23;5.00;;;2.50;;
18200;SDS011;9226;47.858;9.594;2023-03-20T10:05:57;5.93;;;2.60;;
18200;SDS011;9226;47.858;9.594;2023-03-20T10:08:26;6.90;;;2.53;;
18200;SDS011;9226;47.858;9.594;2023-03-20T10:19:24;3.53;;;2.00;;
18200;SDS011;9226;47.858;9.594;2023-03-20T10:22:16;3.33;;;2.40;;
18200;SDS011;9226;47.858;9.594;2023-03-20T10:27:48;3.37;;;2.23;;
18200;SDS011;9226;47.858;9.594;2023-03-20T10:30:37;3.27;;;2.17;;
18200;SDS011;9226;47.858;9.594;2023-03-20T10:33:20;4.17;;;2.03;;
18200;SDS011;9226;47.858;9.594;2023-03-20T10:36:03;5.60;;;2.37;;
18200;SDS011;9226;47.858;9.594;2023-03-20T10:38:40;3.13;;;2.33;;
18200;SDS011;9226;47.858;9.594;2023-03-20T10:41:18;2.50;;;1.90;;
18200;SDS011;9226;47.858;9.594;2023-03-20T10:43:46;2.90;;;1.90;;
18200;SDS011;9226;47.858;9.594;2023-03-20T10:46:22;2.63;;;2.27;;
18200;SDS011;9226;47.858;9.594;2023-03-20T10:48:51;4.00;;;1.30;;
18200;SDS011;9226;47.858;9.594;2023-03-20T10:51:26;2.33;;;1.60;;
18200;SDS011;9226;47.858;9.594;2023-03-20T10:54:05;2.03;;;1.27;;
18200;SDS011;9226;47.858;9.594;2023-03-20T10:56:46;1.73;;;1.43;;
18200;SDS011;9226;47.858;9.594;2023-03-20T11:01:47;1.83;;;0.90;;
18200;SDS011;9226;47.858;9.594;2023-03-20T11:04:12;2.80;;;1.23;;
18200;SDS011;9226;47.858;9.594;2023-03-20T11:06:40;3.03;;;1.23;;
18200;SDS011;9226;47.858;9.594;2023-03-20T11:09:17;1.37;;;1.10;;
18200;SDS011;9226;47.858;9.594;2023-03-20T11:11:45;3.27;;;1.20;;
18200;SDS011;9226;47.858;9.594;2023-03-20T11:14:16;1.43;;;0.90;;
18200;SDS011;9226;47.858;9.594;2023-03-20T11:16:50;1.00;;;0.90;;
18200;SDS011;9226;47.858;9.594;2023-03-20T11:19:18;1.33;;;1.20;;
18200;SDS011;9226;47.858;9.594;2023-03-20T11:21:55;1.13;;;1.00;;
18200;SDS011;9226;47.858;9.594;2023-03-20T11:24:26;1.30;;;1.20;;
18200;SDS011;9226;47.858;9.594;2023-03-20T11:27:06;1.43;;;1.10;;
18200;SDS011;9226;47.858;9.594;2023-03-20T11:29:34;1.40;;;1.20;;
18200;SDS011;9226;47.858;9.594;2023-03-20T11:32:07;1.20;;;1.10;;
18200;SDS011;9226;47.858;9.594;2023-03-20T11:34:38;1.17;;;1.07;;
18200;SDS011;9226;47.858;9.594;2023-03-20T11:37:18;3.27;;;1.07;;
18200;SDS011;9226;47.858;9.594;2023-03-20T11:39:56;10.63;;;5.10;;
18200;SDS011;9226;47.858;9.594;2023-03-20T11:42:24;5.27;;;4.43;;
18200;SDS011;9226;47.858;9.594;2023-03-20T11:45:02;3.37;;;2.53;;
18200;SDS011;9226;47.858;9.594;2023-03-20T11:47:31;2.03;;;1.60;;
18200;SDS011;9226;47.858;9.594;2023-03-20T11:50:00;5.73;;;1.20;;
18200;SDS011;9226;47.858;9.594;2023-03-20T11:52:36;1.73;;;1.40;;
18200;SDS011;9226;47.858;9.594;2023-03-20T11:55:06;2.80;;;1.47;;
18200;SDS011;9226;47.858;9.594;2023-03-20T11:57:47;1.90;;;1.30;;
18200;SDS011;9226;47.858;9.594;2023-03-20T12:00:17;2.00;;;1.30;;
18200;SDS011;9226;47.858;9.594;2023-03-20T12:02:45;7.63;;;1.50;;
18200;SDS011;9226;47.858;9.594;2023-03-20T12:05:19;2.43;;;1.40;;
18200;SDS011;9226;47.858;9.594;2023-03-20T12:07:59;1.47;;;1.17;;
18200;SDS011;9226;47.858;9.594;2023-03-20T12:10:41;2.33;;;1.23;;
18200;SDS011;9226;47.858;9.594;2023-03-20T12:13:12;3.23;;;1.10;;
18200;SDS011;9226;47.858;9.594;2023-03-20T12:15:47;1.80;;;1.00;;
18200;SDS011;9226;47.858;9.594;2023-03-20T12:23:39;2.23;;;0.90;;
18200;SDS011;9226;47.858;9.594;2023-03-20T12:26:13;1.57;;;0.97;;
18200;SDS011;9226;47.858;9.594;2023-03-20T12:31:45;1.30;;;1.00;;
18200;SDS011;9226;47.858;9.594;2023-03-20T12:34:18;1.43;;;0.77;;
18200;SDS011;9226;47.858;9.594;2023-03-20T12:36:48;2.20;;;0.83;;
18200;SDS011;9226;47.858;9.594;2023-03-20T12:39:18;3.00;;;1.93;;
18200;SDS011;9226;47.858;9.594;2023-03-20T12:50:46;1.83;;;1.20;;
18200;SDS011;9226;47.858;9.594;2023-03-20T13:01:02;75.30;;;25.47;;
18200;SDS011;9226;47.858;9.594;2023-03-20T13:13:18;6.13;;;2.17;;
18200;SDS011;9226;47.858;9.594;2023-03-20T13:21:09;3.80;;;1.00;;
18200;SDS011;9226;47.858;9.594;2023-03-20T13:23:45;1.20;;;1.10;;
18200;SDS011;9226;47.858;9.594;2023-03-20T13:26:33;1.47;;;1.10;;
18200;SDS011;9226;47.858;9.594;2023-03-20T13:31:51;1.63;;;1.20;;
18200;SDS011;9226;47.858;9.594;2023-03-20T13:34:27;2.20;;;1.20;;
18200;SDS011;9226;47.858;9.594;2023-03-20T13:37:12;2.60;;;1.10;;
18200;SDS011;9226;47.858;9.594;2023-03-20T13:40:10;2.27;;;1.10;;
18200;SDS011;9226;47.858;9.594;2023-03-20T13:45:38;3.03;;;1.50;;
18200;SDS011;9226;47.858;9.594;2023-03-20T13:48:23;1.30;;;1.00;;
18200;SDS011;9226;47.858;9.594;2023-03-20T13:50:54;2.30;;;1.10;;
18200;SDS011;9226;47.858;9.594;2023-03-20T14:01:37;11.07;;;4.57;;
18200;SDS011;9226;47.858;9.594;2023-03-20T14:04:16;13.03;;;8.90;;
18200;SDS011;9226;47.858;9.594;2023-03-20T14:11:49;1.40;;;1.20;;
18200;SDS011;9226;47.858;9.594;2023-03-20T14:19:41;3.77;;;0.93;;
18200;SDS011;9226;47.858;9.594;2023-03-20T14:22:08;4.30;;;1.30;;
18200;SDS011;9226;47.858;9.594;2023-03-20T14:24:50;1.03;;;0.90;;
18200;SDS011;9226;47.858;9.594;2023-03-20T14:27:21;1.10;;;0.90;;
18200;SDS011;9226;47.858;9.594;2023-03-20T14:29:49;3.30;;;1.37;;
18200;SDS011;9226;47.858;9.594;2023-03-20T14:34:47;3.77;;;2.50;;
18200;SDS011;9226;47.858;9.594;2023-03-20T14:47:48;1.73;;;1.10;;
18200;SDS011;9226;47.858;9.594;2023-03-20T14:53:19;3.23;;;1.20;;
18200;SDS011;9226;47.858;9.594;2023-03-20T15:01:17;4.10;;;2.13;;
18200;SDS011;9226;47.858;9.594;2023-03-20T15:03:55;6.07;;;2.63;;
18200;SDS011;9226;47.858;9.594;2023-03-20T15:06:26;3.37;;;1.83;;
18200;SDS011;9226;47.858;9.594;2023-03-20T15:08:57;4.67;;;1.67;;
18200;SDS011;9226;47.858;9.594;2023-03-20T15:11:31;3.87;;;2.77;;
18200;SDS011;9226;47.858;9.594;2023-03-20T15:13:58;7.43;;;3.73;;
18200;SDS011;9226;47.858;9.594;2023-03-20T15:16:30;1.87;;;1.20;;
18200;SDS011;9226;47.858;9.594;2023-03-20T15:18:58;1.83;;;1.27;;
18200;SDS011;9226;47.858;9.594;2023-03-20T15:23:57;1.30;;;0.90;;
18200;SDS011;9226;47.858;9.594;2023-03-20T15:26:23;1.37;;;0.90;;
18200;SDS011;9226;47.858;9.594;2023-03-20T15:28:49;1.97;;;1.20;;
18200;SDS011;9226;47.858;9.594;2023-03-20T15:31:29;1.10;;;0.90;;
18200;SDS011;9226;47.858;9.594;2023-03-20T15:33:57;1.70;;;0.90;;
18200;SDS011;9226;47.858;9.594;2023-03-20T15:36:25;8.83;;;4.40;;
18200;SDS011;9226;47.858;9.594;2023-03-20T15:39:00;11.70;;;6.50;;
18200;SDS011;9226;47.858;9.594;2023-03-20T15:41:37;5.87;;;2.70;;
18200;SDS011;9226;47.858;9.594;2023-03-20T15:46:36;2.20;;;1.23;;
18200;SDS011;9226;47.858;9.594;2023-03-20T15:49:03;3.77;;;1.90;;
18200;SDS011;9226;47.858;9.594;2023-03-20T15:51:29;2.07;;;1.60;;
18200;SDS011;9226;47.858;9.594;2023-03-20T15:53:54;2.10;;;1.23;;
18200;SDS011;9226;47.858;9.594;2023-03-20T15:56:22;1.43;;;1.03;;
18200;SDS011;9226;47.858;9.594;2023-03-20T15:58:51;1.60;;;1.10;;
18200;SDS011;9226;47.858;9.594;2023-03-20T16:01:23;1.70;;;1.10;;
18200;SDS011;9226;47.858;9.594;2023-03-20T16:03:50;1.13;;;1.00;;
18200;SDS011;9226;47.858;9.594;2023-03-20T16:06:18;1.10;;;1.00;;
18200;SDS011;9226;47.858;9.594;2023-03-20T16:08:45;1.40;;;1.07;;
18200;SDS011;9226;47.858;9.594;2023-03-20T16:11:20;1.10;;;0.90;;
18200;SDS011;9226;47.858;9.594;2023-03-20T16:13:46;1.27;;;1.10;;
18200;SDS011;9226;47.858;9.594;2023-03-20T16:16:17;1.90;;;0.90;;
18200;SDS011;9226;47.858;9.594;2023-03-20T16:18:46;3.33;;;1.10;;
18200;SDS011;9226;47.858;9.594;2023-03-20T16:21:17;1.93;;;0.93;;
18200;SDS011;9226;47.858;9.594;2023-03-20T16:23:43;1.30;;;0.93;;
18200;SDS011;9226;47.858;9.594;2023-03-20T16:26:13;1.20;;;0.90;;
18200;SDS011;9226;47.858;9.594;2023-03-20T16:28:41;2.10;;;1.00;;
18200;SDS011;9226;47.858;9.594;2023-03-20T16:31:21;1.93;;;1.00;;
18200;SDS011;9226;47.858;9.594;2023-03-20T16:33:57;1.97;;;1.30;;
18200;SDS011;9226;47.858;9.594;2023-03-20T16:36:36;1.03;;;0.93;;
18200;SDS011;9226;47.858;9.594;2023-03-20T16:39:15;1.70;;;0.83;;
18200;SDS011;9226;47.858;9.594;2023-03-20T16:41:43;2.10;;;1.20;;
18200;SDS011;9226;47.858;9.594;2023-03-20T16:44:13;1.20;;;1.10;;
18200;SDS011;9226;47.858;9.594;2023-03-20T16:51:56;1.37;;;1.10;;
18200;SDS011;9226;47.858;9.594;2023-03-20T16:54:25;2.83;;;1.03;;
18200;SDS011;9226;47.858;9.594;2023-03-20T16:56:53;1.30;;;1.20;;
18200;SDS011;9226;47.858;9.594;2023-03-20T16:59:20;2.20;;;1.03;;
18200;SDS011;9226;47.858;9.594;2023-03-20T17:01:48;1.50;;;0.90;;
18200;SDS011;9226;47.858;9.594;2023-03-20T17:04:31;1.33;;;1.00;;
18200;SDS011;9226;47.858;9.594;2023-03-20T17:06:59;3.23;;;1.10;;
18200;SDS011;9226;47.858;9.594;2023-03-20T17:09:30;2.07;;;1.13;;
18200;SDS011;9226;47.858;9.594;2023-03-20T17:12:17;1.67;;;1.17;;
18200;SDS011;9226;47.858;9.594;2023-03-20T17:14:42;2.07;;;1.40;;
18200;SDS011;9226;47.858;9.594;2023-03-20T17:17:14;1.97;;;1.10;;
18200;SDS011;9226;47.858;9.594;2023-03-20T17:19:41;2.27;;;1.03;;
18200;SDS011;9226;47.858;9.594;2023-03-20T17:22:13;2.03;;;0.97;;
18200;SDS011;9226;47.858;9.594;2023-03-20T17:24:57;2.67;;;1.17;;
18200;SDS011;9226;47.858;9.594;2023-03-20T17:27:23;1.97;;;1.17;;
18200;SDS011;9226;47.858;9.594;2023-03-20T17:29:49;2.77;;;1.07;;
18200;SDS011;9226;47.858;9.594;2023-03-20T17:32:18;1.57;;;1.13;;
18200;SDS011;9226;47.858;9.594;2023-03-20T17:34:47;1.77;;;1.03;;
18200;SDS011;9226;47.858;9.594;2023-03-20T17:37:14;3.40;;;0.90;;
18200;SDS011;9226;47.858;9.594;2023-03-20T17:39:46;1.93;;;1.00;;
18200;SDS011;9226;47.858;9.594;2023-03-20T17:42:18;2.13;;;1.10;;
18200;SDS011;9226;47.858;9.594;2023-03-20T17:44:46;1.40;;;1.20;;
18200;SDS011;9226;47.858;9.594;2023-03-20T17:47:13;2.80;;;1.10;;
18200;SDS011;9226;47.858;9.594;2023-03-20T17:49:40;3.10;;;1.23;;
18200;SDS011;9226;47.858;9.594;2023-03-20T17:52:08;1.80;;;1.03;;
18200;SDS011;9226;47.858;9.594;2023-03-20T17:54:38;3.33;;;1.23;;
18200;SDS011;9226;47.858;9.594;2023-03-20T17:57:04;1.83;;;1.10;;
18200;SDS011;9226;47.858;9.594;2023-03-20T17:59:30;5.47;;;1.20;;
18200;SDS011;9226;47.858;9.594;2023-03-20T18:01:56;3.17;;;1.00;;